Latest Weather Observations for Ivanhoe Airport

IDN60801

Issued at 6:33 am EDT Saturday 21 October 2017 (issued every 30 minutes, with the page automatically refreshed every 10 minutes)

About weather observations | Map of weather stations | Latest weather observations for NSW | Other Formats
Station Details ID: 049000 Name: IVANHOE AERODROME AWS Lat: -32.88 Lon: 144.31 Height: 100.0 m
Data from the previous 72 hours. | See also: Recent months at Ivanhoe Airport
Date/Time
EDT
Temp
°C
App
Temp
°C
Dew
Point
°C
Rel
Hum
%
Delta-T
°C
Wind Press
QNH
hPa
Press
MSL
hPa
Rain since
9am
mm
Dir  Spd
km/h
Gust
km/h
Spd
kts
Gust
kts
21/06:30am 9.2 4.7 4.0 70 2.3 SSW 17 24 9 13 1023.3 1023.1 0.0
21/06:00am 9.6 4.7 4.0 68 2.5 S 19 26 10 14 1023.1 1022.9 0.0
21/05:30am 9.9 5.0 3.9 66 2.7 S 19 28 10 15 1023.1 1022.9 0.0
21/05:00am 10.1 5.1 3.8 65 2.8 S 19 24 10 13 1023.1 1022.9 0.0
21/04:30am 10.5 5.3 3.8 63 3.0 S 20 32 11 17 1022.9 1022.7 0.0
21/04:00am 10.9 5.8 3.9 62 3.1 S 20 26 11 14 1023.0 1022.8 0.0
21/03:30am 11.5 6.0 3.8 59 3.4 S 22 35 12 19 1023.4 1023.2 0.0
21/03:00am 11.9 6.8 3.9 58 3.6 S 20 30 11 16 1023.7 1023.5 0.0
21/02:30am 12.4 7.3 3.9 56 3.8 S 20 32 11 17 1023.8 1023.6 0.0
21/02:00am 12.8 8.3 4.0 55 4.0 S 17 24 9 13 1024.2 1024.0 0.0
21/01:30am 13.1 8.6 4.0 54 4.1 S 17 22 9 12 1024.2 1024.0 0.0
21/01:00am 14.1 9.1 3.8 50 4.7 S 19 26 10 14 1024.3 1024.1 0.0
21/12:30am 14.8 9.8 3.6 47 5.1 S 19 28 10 15 1024.3 1024.1 0.0
21/12:00am 15.5 10.2 3.0 43 5.7 S 20 26 11 14 1024.2 1024.0 0.0
 
Date/Time
EDT
Temp
°C
App
Temp
°C
Dew
Point
°C
Rel
Hum
%
Delta-T
°C
Wind Press
QNH
hPa
Press
MSL
hPa
Rain since
9am
mm
Dir  Spd
km/h
Gust
km/h
Spd
kts
Gust
kts
20/11:30pm 16.3 10.9 2.7 40 6.2 S 20 32 11 17 1024.1 1023.9 0.0
20/11:00pm 16.7 10.9 2.3 38 6.5 S 22 33 12 18 1024.0 1023.8 0.0
20/10:30pm 16.6 12.0 1.5 36 6.7 S 15 22 8 12 1023.9 1023.7 0.0
20/10:00pm 17.1 12.0 0.7 33 7.2 S 17 20 9 11 1023.7 1023.5 0.0
20/09:30pm 17.8 12.6 0.0 30 7.8 S 17 24 9 13 1023.6 1023.4 0.0
20/09:00pm 18.4 13.1 -0.4 28 8.1 SSW 17 26 9 14 1023.3 1023.1 0.0
20/08:30pm 19.2 13.3 -0.7 26 8.6 S 20 30 11 16 1023.0 1022.8 0.0
20/08:00pm 19.6 13.7 -0.9 25 8.9 S 20 35 11 19 1022.7 1022.5 0.0
20/07:30pm 20.4 13.7 -0.8 24 9.3 SSW 24 35 13 19 1022.4 1022.2 0.0
20/07:04pm 21.1 13.8 -0.2 24 9.5 S 28 46 15 25 1022.1 1021.9 0.0
20/07:00pm 21.3 14.4 -0.1 24 9.5 S 26 46 14 25 1022.0 1021.8 0.0
20/06:57pm 21.3 14.0 -0.1 24 9.6 S 28 46 15 25 1022.0 1021.8 0.0
20/06:30pm 22.3 15.6 1.3 25 9.7 SSW 26 43 14 23 1021.7 1021.5 0.0
20/06:00pm 22.8 16.1 1.2 24 10.0 SSW 26 37 14 20 1021.5 1021.3 0.0
20/05:30pm 22.9 16.3 1.9 25 9.9 SSW 26 43 14 23 1021.4 1021.2 0.0
20/05:00pm 23.2 16.4 3.2 27 9.7 SSW 28 41 15 22 1021.3 1021.1 0.0
20/04:30pm 23.4 16.9 2.8 26 9.9 S 26 39 14 21 1021.6 1021.4 0.0
20/04:00pm 23.0 16.2 3.0 27 9.6 SSW 28 39 15 21 1021.6 1021.4 0.0
20/03:30pm 23.0 17.0 3.5 28 9.5 SSW 24 37 13 20 1022.2 1022.0 0.0
20/03:00pm 22.3 16.5 4.4 31 8.8 SSW 24 37 13 20 1022.5 1022.3 0.0
20/02:30pm 22.3 16.1 4.4 31 8.8 SSW 26 41 14 22 1023.1 1022.9 0.0
20/02:00pm 22.1 16.0 4.7 32 8.6 SSW 26 39 14 21 1023.4 1023.2 0.0
20/01:30pm 20.8 15.2 5.2 36 7.7 SSW 24 41 13 22 1023.8 1023.6 0.0
20/01:00pm 20.3 14.5 6.3 40 7.0 SSW 26 41 14 22 1024.1 1023.9 0.0
20/12:30pm 19.4 13.2 6.2 42 6.6 S 28 43 15 23 1024.5 1024.3 0.0
20/12:00pm 18.8 12.8 6.9 46 6.0 S 28 39 15 21 1024.8 1024.6 0.0
20/11:30am 17.8 11.6 6.3 47 5.7 S 28 39 15 21 1025.0 1024.8 0.0
20/11:00am 17.2 10.5 5.8 47 5.5 S 30 41 16 22 1025.4 1025.2 0.0
20/10:30am 16.8 10.5 5.7 48 5.4 S 28 39 15 21 1025.3 1025.1 0.0
20/10:00am 16.8 10.8 6.9 52 4.9 S 28 41 15 22 1025.3 1025.1 0.0
20/09:38am 15.9 9.3 6.1 52 4.8 S 30 48 16 26 1025.3 1025.1 0.0
20/09:30am 15.6 8.7 6.3 54 4.5 S 32 48 17 26 1025.2 1025.0 0.0
20/09:18am 15.3 9.0 5.5 52 4.7 S 28 48 15 26 1025.1 1024.9 0.0
20/09:00am 15.2 9.4 8.0 62 3.6 S 28 43 15 23 1025.0 1024.8 7.6
20/08:31am 14.5 8.7 8.0 65 3.3 S 28 46 15 25 1024.9 1024.7 7.6
20/08:30am 14.5 9.1 8.0 65 3.3 SSW 26 39 14 21 1024.9 1024.7 7.6
20/08:00am 13.9 8.6 8.3 69 2.8 SSW 26 37 14 20 1024.7 1024.5 7.6
20/07:30am 12.4 7.7 7.9 74 2.2 SSW 22 32 12 17 1024.3 1024.1 7.6
20/07:00am 12.1 7.4 7.6 74 2.2 SSW 22 28 12 15 1023.8 1023.6 7.6
20/06:30am 12.5 7.4 7.6 72 2.4 SSW 24 33 13 18 1023.2 1023.0 7.6
20/06:00am 13.1 8.5 8.2 72 2.4 SSW 22 32 12 17 1022.6 1022.4 7.6
20/05:30am 13.7 8.8 8.3 70 2.7 SSW 24 37 13 20 1022.2 1022.0 7.6
20/05:00am 14.5 9.1 8.2 66 3.2 SSW 26 35 14 19 1021.9 1021.7 7.6
20/04:30am 15.1 9.0 8.1 63 3.5 SSW 30 44 16 24 1021.8 1021.6 7.6
20/04:00am 16.0 11.3 9.2 64 3.5 SSW 24 33 13 18 1021.5 1021.3 7.6
20/03:30am 16.9 11.9 9.6 62 3.8 SSW 26 41 14 22 1021.6 1021.4 7.6
20/03:00am 17.4 13.6 11.0 66 3.5 SSW 22 37 12 20 1021.2 1021.0 7.6
20/02:30am 18.5 13.9 12.3 67 3.5 SSW 28 41 15 22 1020.9 1020.6 7.6
20/02:00am 19.0 14.5 12.5 66 3.6 SSW 28 35 15 19 1021.0 1020.7 7.6
20/01:30am 19.8 15.5 13.3 66 3.7 SSW 28 41 15 22 1020.8 1020.5 7.6
20/01:00am 20.7 17.4 15.0 70 3.4 S 26 39 14 21 1020.7 1020.4 7.6
20/12:30am 21.3 19.9 17.9 81 2.1 SSW 22 32 12 17 1020.8 1020.5 7.6
20/12:00am 21.6 22.7 18.8 84 1.8 SSW 11 17 6 9 1020.3 1020.0 7.6
 
Date/Time
EDT
Temp
°C
App
Temp
°C
Dew
Point
°C
Rel
Hum
%
Delta-T
°C
Wind Press
QNH
hPa
Press
MSL
hPa
Rain since
9am
mm
Dir  Spd
km/h
Gust
km/h
Spd
kts
Gust
kts
19/11:30pm 22.0 25.0 21.2 95 0.5 WSW 7 11 4 6 1020.2 1019.9 7.6
19/11:00pm 22.0 25.0 21.3 96 0.5 WNW 7 9 4 5 1020.1 1019.8 7.6
19/10:30pm 22.0 26.6 21.8 99 0.1 CALM 0 0 0 0 1019.9 1019.6 7.6
19/10:00pm 22.0 26.2 21.0 94 0.7 CALM 0 0 0 0 1020.0 1019.7 7.6
19/09:30pm 22.3 25.5 21.3 94 0.7 N 6 11 3 6 1019.9 1019.6 7.6
19/09:00pm 22.5 25.6 22.2 98 0.2 NNW 9 11 5 6 1019.4 1019.1 7.6
19/08:30pm 22.6 25.6 21.9 96 0.5 NNE 9 13 5 7 1018.9 1018.6 7.6
19/08:00pm 22.8 24.6 21.8 94 0.7 ENE 15 19 8 10 1018.1 1017.8 7.6
19/07:30pm 23.3 24.9 21.4 89 1.3 E 15 20 8 11 1017.9 1017.6 7.6
19/07:00pm 24.1 27.4 21.4 85 1.8 ENE 6 9 3 5 1017.8 1017.5 7.6
19/06:30pm 24.0 27.5 22.1 89 1.3 N 7 9 4 5 1016.6 1016.3 7.6
19/06:00pm 23.7 26.5 21.6 88 1.4 NNE 9 13 5 7 1016.1 1015.9 7.6
19/05:30pm 23.0 25.1 20.9 88 1.4 N 11 19 6 10 1016.5 1016.2 7.4
19/05:00pm 23.1 24.9 20.4 85 1.8 W 11 19 6 10 1016.7 1016.4 3.2
19/04:30pm 26.6 26.0 18.5 61 5.2 SW 19 24 10 13 1016.3 1016.1 0.0
19/04:00pm 30.3 28.9 15.6 41 9.1 NNW 17 26 9 14 1016.1 1015.9 0.0
19/03:30pm 31.8 30.2 16.5 39 9.7 N 20 30 11 16 1016.2 1016.0 0.0
19/03:00pm 30.5 28.7 15.4 40 9.3 NNW 19 28 10 15 1016.7 1016.4 0.0
19/02:30pm 29.5 27.7 16.0 44 8.4 N 20 35 11 19 1017.2 1016.9 0.0
19/02:00pm 30.6 28.5 16.2 41 9.0 N 22 35 12 19 1017.6 1017.3 0.0
19/01:30pm 29.3 27.7 16.1 44 8.2 N 19 24 10 13 1018.1 1017.8 0.0
19/01:00pm 29.2 27.0 16.0 44 8.2 N 22 30 12 16 1018.3 1018.0 0.0
19/12:30pm 29.5 26.8 15.6 43 8.6 N 24 35 13 19 1018.5 1018.2 0.0
19/12:00pm 29.4 27.2 15.9 44 8.4 NNW 22 39 12 21 1018.7 1018.4 0.0
19/11:30am 29.5 25.9 15.2 41 8.8 N 28 44 15 24 1018.7 1018.4 0.0
19/11:00am 28.5 25.1 15.8 46 7.8 N 28 41 15 22 1019.0 1018.7 0.0
19/10:30am 27.9 25.0 15.2 46 7.8 N 24 35 13 19 1019.3 1019.0 0.0
19/10:00am 27.5 25.1 15.5 48 7.3 N 22 33 12 18 1019.4 1019.1 0.0
19/09:30am 27.1 24.2 15.1 47 7.3 NNW 24 37 13 20 1019.4 1019.1 0.0
19/09:00am 27.0 23.6 14.7 47 7.4 N 26 39 14 21 1019.1 1018.8 0.0
19/08:30am 26.7 23.2 14.5 47 7.3 N 26 35 14 19 1019.1 1018.8 0.0
19/08:00am 26.4 23.7 14.5 48 7.1 N 22 33 12 18 1018.9 1018.6 0.0
19/07:30am 26.3 24.0 14.7 48 7.0 N 20 28 11 15 1018.5 1018.2 0.0
19/07:00am 26.0 23.9 14.8 50 6.7 N 19 26 10 14 1018.1 1017.8 0.0
19/06:30am 26.1 23.8 14.6 49 6.9 N 20 28 11 15 1017.7 1017.4 0.0
19/06:00am 26.3 23.5 14.4 48 7.1 N 22 35 12 19 1017.4 1017.1 0.0
19/05:30am 26.5 23.7 14.3 47 7.3 N 22 30 12 16 1017.2 1016.9 0.0
19/05:00am 26.4 24.1 14.2 47 7.3 N 19 24 10 13 1017.1 1016.8 0.0
19/04:30am 26.6 24.6 14.0 46 7.5 N 17 26 9 14 1016.9 1016.6 0.0
19/04:00am 27.3 24.6 13.6 43 8.1 N 20 33 11 18 1016.9 1016.6 0.0
19/03:30am 27.5 24.7 12.7 40 8.7 N 19 26 10 14 1016.9 1016.6 0.0
19/03:00am 27.7 24.2 12.1 38 9.1 NNE 22 28 12 15 1017.0 1016.7 0.0
19/02:30am 28.0 24.6 12.4 38 9.1 NNE 22 30 12 16 1017.0 1016.7 0.0
19/02:00am 28.2 25.1 12.1 37 9.4 NNE 20 28 11 15 1017.3 1017.0 0.0
19/01:30am 28.1 25.1 12.0 36 9.4 NNE 19 28 10 15 1017.5 1017.2 0.0
19/01:00am 28.0 25.0 12.0 37 9.3 NNE 19 24 10 13 1017.6 1017.3 0.0
19/12:30am 27.9 25.3 11.9 37 9.3 NNE 17 20 9 11 1017.7 1017.4 0.0
19/12:00am 27.5 25.6 11.9 38 9.0 NNE 13 17 7 9 1017.7 1017.4 0.0
 
Date/Time
EDT
Temp
°C
App
Temp
°C
Dew
Point
°C
Rel
Hum
%
Delta-T
°C
Wind Press
QNH
hPa
Press
MSL
hPa
Rain since
9am
mm
Dir  Spd
km/h
Gust
km/h
Spd
kts
Gust
kts
18/11:30pm 27.9 25.5 11.5 36 9.4 NNE 15 19 8 10 1017.8 1017.5 0.0
18/11:00pm 28.4 25.6 11.5 35 9.7 NNE 17 19 9 10 1017.7 1017.4 0.0
18/10:30pm 28.9 26.3 11.9 35 9.9 NE 17 22 9 12 1017.5 1017.2 0.0
18/10:00pm 28.8 26.5 11.8 35 9.9 NE 15 19 8 10 1017.5 1017.2 0.0
18/09:30pm 28.3 26.4 11.8 36 9.6 NNE 13 17 7 9 1017.5 1017.2 0.0
18/09:00pm 27.8 26.3 11.8 37 9.2 NNE 11 13 6 7 1017.2 1016.9 0.0
18/08:30pm 28.9 26.9 11.5 34 10.1 NNE 13 15 7 8 1016.9 1016.6 0.0
18/08:00pm 30.1 27.4 11.6 32 10.8 NNE 17 24 9 13 1016.5 1016.2 0.0
18/07:30pm 30.6 27.5 11.5 30 11.1 NNE 19 24 10 13 1016.2 1016.0 0.0
18/07:00pm 31.3 28.1 11.1 29 11.7 NE 19 26 10 14 1016.0 1015.8 0.0
18/06:30pm 31.8 28.0 11.0 28 12.1 NNE 22 32 12 17 1015.8 1015.6 0.0
18/06:00pm 32.7 29.3 11.3 27 12.5 NE 20 30 11 16 1015.6 1015.4 0.0
18/05:30pm 32.8 29.4 11.3 27 12.6 NE 20 32 11 17 1015.7 1015.5 0.0
18/05:00pm 31.9 27.8 10.0 26 12.5 NNE 22 33 12 18 1015.8 1015.6 0.0
18/04:30pm 33.0 29.2 9.7 24 13.3 ENE 20 32 11 17 1016.0 1015.8 0.0
18/04:00pm 32.8 29.3 10.2 25 13.0 N 19 32 10 17 1016.2 1016.0 0.0
18/03:30pm 32.9 28.9 10.3 25 13.1 NE 22 39 12 21 1016.7 1016.4 0.0
18/03:00pm 31.9 28.2 10.0 26 12.5 ENE 20 32 11 17 1017.2 1016.9 0.0
18/02:30pm 32.6 28.3 10.6 26 12.8 NNE 24 35 13 19 1017.8 1017.5 0.0
18/02:00pm 32.0 26.8 10.1 26 12.5 NE 28 35 15 19 1018.2 1017.9 0.0
18/01:30pm 31.2 27.2 10.5 28 11.9 NE 22 37 12 20 1018.6 1018.3 0.0
18/01:00pm 31.4 26.7 10.7 28 11.9 NNE 26 39 14 21 1019.0 1018.7 0.0
18/12:30pm 30.4 26.8 10.4 29 11.4 NE 20 32 11 17 1019.4 1019.1 0.0
18/12:00pm 30.1 25.9 11.1 31 11.0 NE 24 32 13 17 1019.8 1019.5 0.0
18/11:30am 29.0 23.9 10.6 32 10.5 NE 28 37 15 20 1020.4 1020.1 0.0
18/11:00am 28.3 23.7 10.9 34 9.9 NNE 26 37 14 20 1020.8 1020.5 0.0
18/10:30am 27.8 23.5 10.9 35 9.6 NNE 24 35 13 19 1021.2 1021.0 0.0
18/10:00am 26.7 21.7 10.8 37 9.0 NNE 28 37 15 20 1021.4 1021.2 0.0
18/09:30am 26.2 20.9 11.2 39 8.5 NNE 30 39 16 21 1021.3 1021.1 0.0
18/09:00am 25.3 21.1 11.1 41 8.0 NNE 24 33 13 18 1021.4 1021.2 0.0
18/08:30am 23.8 20.2 10.5 43 7.4 NNE 20 26 11 14 1021.3 1021.1 0.0
18/08:00am 22.3 19.1 9.8 45 6.8 NE 17 22 9 12 1021.4 1021.2 0.0
18/07:30am 20.1 17.1 7.8 45 6.4 ENE 13 15 7 8 1021.2 1021.0 0.0
18/07:00am 18.8 15.8 7.6 48 5.7 ENE 13 17 7 9 1020.9 1020.6 0.0

Other Formats:

Comma delimited format used in spreadsheet applications
http://www.bom.gov.au/fwo/IDN60801/IDN60801.95697.axf

JavaScript Object Notation format (JSON) in row-major order
http://www.bom.gov.au/fwo/IDN60801/IDN60801.95697.json